createdAt,value
2023-05-02T00:01:52.070Z,95581.88
2023-05-02T00:04:24.204Z,95584.53
2023-05-02T00:06:55.930Z,95582.81
2023-05-02T00:09:27.511Z,95585.81
2023-05-02T00:11:59.581Z,95580.47
2023-05-02T00:14:31.163Z,95576.59
2023-05-02T00:17:03.007Z,95578.91
2023-05-02T00:19:40.114Z,95579.31
2023-05-02T00:22:11.570Z,95576.59
2023-05-02T00:24:43.039Z,95577.06
2023-05-02T00:27:14.533Z,95573.84
2023-05-02T00:29:47.806Z,95577.66
2023-05-02T00:32:19.374Z,95583.59
2023-05-02T00:34:50.939Z,95574.44
2023-05-02T00:37:26.334Z,95586.94
2023-05-02T00:39:58.617Z,95575.78
2023-05-02T00:42:31.585Z,95577.06
2023-05-02T00:45:06.323Z,95572.84
2023-05-02T00:47:38.157Z,95582.38
2023-05-02T00:50:09.950Z,95579.22
2023-05-02T00:52:41.911Z,95574.97
2023-05-02T00:55:13.381Z,95577.31
2023-05-02T00:57:44.926Z,95578.09
2023-05-02T01:00:16.472Z,95583.50
2023-05-02T01:02:53.366Z,95579.34
2023-05-02T01:05:34.025Z,95585.94
2023-05-02T01:08:19.245Z,95583.59
2023-05-02T01:11:13.205Z,95586.56
2023-05-02T01:13:46.975Z,95584.72
2023-05-02T01:16:20.315Z,95582.00
2023-05-02T01:18:52.654Z,95579.94
2023-05-02T01:21:24.830Z,95579.97
2023-05-02T01:24:32.005Z,95579.94
2023-05-02T01:27:24.972Z,95575.44
2023-05-02T01:29:59.347Z,95584.91
2023-05-02T01:32:34.979Z,95583.00
2023-05-02T01:35:08.503Z,95586.44
2023-05-02T01:37:43.123Z,95584.94
2023-05-02T01:40:20.521Z,95586.94
2023-05-02T01:42:53.640Z,95584.25
2023-05-02T01:45:26.167Z,95583.06
2023-05-02T01:47:58.527Z,95589.22
2023-05-02T01:50:30.007Z,95588.50
2023-05-02T01:53:03.701Z,95593.06
2023-05-02T01:55:38.438Z,95587.34
2023-05-02T01:58:11.223Z,95596.09
2023-05-02T02:00:45.645Z,95587.69
2023-05-02T02:03:18.938Z,95592.25
2023-05-02T02:05:52.978Z,95605.13
2023-05-02T02:08:25.450Z,95602.44
2023-05-02T02:11:07.802Z,95606.59
2023-05-02T02:13:49.980Z,95602.81
2023-05-02T02:16:25.346Z,95604.78
2023-05-02T02:19:04.453Z,95609.63
2023-05-02T02:21:36.600Z,95611.44
2023-05-02T02:24:09.278Z,95616.19
2023-05-02T02:26:41.115Z,95610.38
2023-05-02T02:29:12.584Z,95613.06
2023-05-02T02:31:43.993Z,95611.34
2023-05-02T02:34:15.817Z,95615.19
2023-05-02T02:37:04.600Z,95611.34
2023-05-02T02:39:51.496Z,95617.44
2023-05-02T02:42:39.872Z,95618.47
2023-05-02T02:45:17.448Z,95614.03
2023-05-02T02:48:07.455Z,95626.44
2023-05-02T02:51:19.220Z,95620.09
2023-05-02T02:54:25.427Z,95626.69
2023-05-02T02:57:04.576Z,95627.47
2023-05-02T02:59:42.320Z,95629.06
2023-05-02T03:02:18.734Z,95635.94
2023-05-02T03:04:51.962Z,95632.16
2023-05-02T03:07:23.771Z,95638.22
2023-05-02T03:09:55.617Z,95637.56
2023-05-02T03:12:27.158Z,95638.59
2023-05-02T03:15:31.406Z,95640.88
2023-05-02T03:18:02.954Z,95638.22
2023-05-02T03:20:34.468Z,95635.66
2023-05-02T03:23:06.303Z,95641.34
2023-05-02T03:25:37.872Z,95654.19
2023-05-02T03:28:09.407Z,95644.66
2023-05-02T03:30:41.901Z,95640.13
2023-05-02T03:33:13.564Z,95645.78
2023-05-02T03:35:45.187Z,95651.47
2023-05-02T03:38:16.754Z,95645.72
2023-05-02T03:40:48.214Z,95645.63
2023-05-02T03:43:19.716Z,95646.59
2023-05-02T03:45:51.523Z,95647.38
2023-05-02T03:48:23.167Z,95658.34
2023-05-02T03:50:55.219Z,95655.34
2023-05-02T03:53:27.019Z,95662.56
2023-05-02T03:55:58.783Z,95658.44
2023-05-02T03:58:30.418Z,95666.44
2023-05-02T04:01:02.300Z,95665.31
2023-05-02T04:03:33.874Z,95665.03
2023-05-02T04:06:05.559Z,95673.78
2023-05-02T04:08:37.118Z,95673.00
2023-05-02T04:11:08.721Z,95675.75
2023-05-02T04:13:40.263Z,95683.03
2023-05-02T04:16:11.853Z,95688.34
2023-05-02T04:18:43.460Z,95698.63
2023-05-02T04:21:15.013Z,95689.53
2023-05-02T04:23:46.496Z,95692.19
2023-05-02T04:26:17.924Z,95694.94
2023-05-02T04:28:49.392Z,95694.19
2023-05-02T04:31:21.167Z,95699.16
2023-05-02T04:33:53.183Z,95696.91
2023-05-02T04:36:26.222Z,95706.88
2023-05-02T04:38:57.710Z,95710.78
2023-05-02T04:41:29.216Z,95719.09
2023-05-02T04:44:00.655Z,95716.19
2023-05-02T04:46:32.138Z,95713.59
2023-05-02T04:49:03.598Z,95719.31
2023-05-02T04:51:35.113Z,95719.38
2023-05-02T04:54:06.783Z,95723.59
2023-05-02T04:56:38.574Z,95732.34
2023-05-02T04:59:12.572Z,95733.47
2023-05-02T05:01:45.362Z,95737.72
2023-05-02T05:04:17.145Z,95743.56
2023-05-02T05:06:49.354Z,95744.69
2023-05-02T05:09:21.102Z,95738.66
2023-05-02T05:11:52.643Z,95744.56
2023-05-02T05:14:24.335Z,95743.84
2023-05-02T05:16:55.796Z,95746.44
2023-05-02T05:19:27.896Z,95748.63
2023-05-02T05:21:59.368Z,95747.06
2023-05-02T05:24:30.834Z,95753.81
2023-05-02T05:27:02.903Z,95758.66
2023-05-02T05:29:34.397Z,95756.13
2023-05-02T05:32:06.373Z,95769.28
2023-05-02T05:34:37.982Z,95762.38
2023-05-02T05:37:09.553Z,95764.25
2023-05-02T05:39:41.266Z,95772.53
2023-05-02T05:42:13.134Z,95766.84
2023-05-02T05:44:44.626Z,95772.13
2023-05-02T05:47:22.044Z,95782.56
2023-05-02T05:49:54.481Z,95789.28
2023-05-02T05:52:26.134Z,95793.22
2023-05-02T05:54:57.631Z,95783.75
2023-05-02T05:57:29.105Z,95792.44
2023-05-02T06:00:00.841Z,95802.13
2023-05-02T06:02:32.707Z,95790.56
2023-05-02T06:05:04.582Z,95795.81
2023-05-02T06:07:36.313Z,95794.41
2023-05-02T06:10:09.212Z,95802.69
2023-05-02T06:12:40.972Z,95808.72
2023-05-02T06:15:12.476Z,95809.06
2023-05-02T06:17:44.449Z,95808.72
2023-05-02T06:20:16.712Z,95809.28
2023-05-02T06:22:50.218Z,95813.53
2023-05-02T06:25:21.830Z,95816.34
2023-05-02T06:27:53.396Z,95814.66
2023-05-02T06:30:25.068Z,95823.16
2023-05-02T06:32:56.995Z,95822.94
2023-05-02T06:35:28.654Z,95818.09
2023-05-02T06:38:00.435Z,95821.59
2023-05-02T06:40:32.002Z,95830.91
2023-05-02T06:43:03.548Z,95840.78
2023-05-02T06:45:35.082Z,95835.22
2023-05-02T06:48:07.702Z,95838.97
2023-05-02T06:50:39.574Z,95838.44
2023-05-02T06:53:11.262Z,95846.16
2023-05-02T06:55:44.332Z,95838.56
2023-05-02T06:58:16.214Z,95845.44
2023-05-02T07:00:48.815Z,95845.38
2023-05-02T07:03:20.490Z,95851.00
2023-05-02T07:05:51.971Z,95847.28
2023-05-02T07:08:23.910Z,95851.28
2023-05-02T07:10:55.477Z,95850.22
2023-05-02T07:13:26.974Z,95854.19
2023-05-02T07:15:58.564Z,95855.16
2023-05-02T07:18:30.140Z,95849.88
2023-05-02T07:21:01.756Z,95851.91
2023-05-02T07:23:33.330Z,95853.25
2023-05-02T07:26:07.886Z,95857.41
2023-05-02T07:28:39.425Z,95856.19
2023-05-02T07:31:11.290Z,95855.94
2023-05-02T07:33:42.881Z,95865.81
2023-05-02T07:36:14.439Z,95863.38
2023-05-02T07:38:45.958Z,95866.31
2023-05-02T07:41:17.461Z,95864.97
2023-05-02T07:43:49.343Z,95863.66
2023-05-02T07:46:21.440Z,95867.00
2023-05-02T07:48:54.128Z,95870.31
2023-05-02T07:51:26.750Z,95868.41
2023-05-02T07:53:59.097Z,95867.63
2023-05-02T07:56:30.807Z,95881.28
2023-05-02T07:59:03.568Z,95878.09
2023-05-02T08:01:36.463Z,95873.34
2023-05-02T08:04:10.674Z,95877.19
2023-05-02T08:06:44.797Z,95870.34
2023-05-02T08:09:16.500Z,95879.19
2023-05-02T08:11:48.086Z,95884.63
2023-05-02T08:14:19.668Z,95887.25
2023-05-02T08:16:51.280Z,95879.91
2023-05-02T08:19:23.011Z,95885.34
2023-05-02T08:21:55.168Z,95893.47
2023-05-02T08:24:27.950Z,95886.66
2023-05-02T08:26:59.287Z,95888.22
2023-05-02T08:29:31.384Z,95886.75
2023-05-02T08:32:02.955Z,95890.97
2023-05-02T08:34:34.449Z,95890.41
2023-05-02T08:37:09.558Z,95890.84
2023-05-02T08:39:40.928Z,95888.47
2023-05-02T08:42:12.257Z,95890.66
2023-05-02T08:44:43.636Z,95893.47
2023-05-02T08:47:15.767Z,95893.63
2023-05-02T08:49:48.656Z,95896.28
2023-05-02T08:52:20.442Z,95899.63
2023-05-02T08:54:51.898Z,95893.81
2023-05-02T08:57:23.565Z,95910.13
2023-05-02T08:59:54.949Z,95906.78
2023-05-02T09:02:38.431Z,95898.56
2023-05-02T09:05:11.798Z,95899.47
2023-05-02T09:07:49.635Z,95910.19
2023-05-02T09:10:21.528Z,95911.06
2023-05-02T09:12:52.958Z,95909.06
2023-05-02T09:15:24.477Z,95911.78
2023-05-02T09:17:55.841Z,95918.72
2023-05-02T09:20:27.381Z,95915.47
2023-05-02T09:22:58.857Z,95927.06
2023-05-02T09:25:36.227Z,95919.56
2023-05-02T09:28:07.683Z,95920.13
2023-05-02T09:30:39.204Z,95923.13
2023-05-02T09:33:10.705Z,95919.66
2023-05-02T09:35:53.342Z,95925.06
2023-05-02T09:38:25.598Z,95925.91
2023-05-02T09:40:56.986Z,95927.25
2023-05-02T09:43:28.318Z,95925.41
2023-05-02T09:45:59.810Z,95933.47
2023-05-02T09:48:32.515Z,95925.25
2023-05-02T09:51:04.785Z,95926.88
2023-05-02T09:53:43.291Z,95932.34
2023-05-02T09:56:15.238Z,95924.69
2023-05-02T09:58:46.692Z,95925.84
2023-05-02T10:01:19.376Z,95923.53
2023-05-02T10:03:51.088Z,95934.22
2023-05-02T10:06:22.906Z,95929.16
2023-05-02T10:08:54.331Z,95926.56
2023-05-02T10:11:25.811Z,95928.94
2023-05-02T10:13:57.549Z,95925.06
2023-05-02T10:16:29.548Z,95928.94
2023-05-02T10:19:07.900Z,95922.03
2023-05-02T10:21:40.352Z,95930.91
2023-05-02T10:24:12.867Z,95930.50
2023-05-02T10:26:44.257Z,95927.81
2023-05-02T10:29:15.828Z,95925.84
2023-05-02T10:31:48.383Z,95923.53
2023-05-02T10:34:19.954Z,95924.84
2023-05-02T10:36:51.336Z,95926.28
2023-05-02T10:39:24.521Z,95937.88
2023-05-02T10:41:57.884Z,95932.91
2023-05-02T10:44:32.702Z,95932.81
2023-05-02T10:47:20.377Z,95937.53
2023-05-02T10:49:55.579Z,95943.97
2023-05-02T10:52:29.210Z,95934.25
2023-05-02T10:55:19.744Z,95935.69
2023-05-02T10:57:57.124Z,95943.75
2023-05-02T11:00:30.068Z,95935.72
2023-05-02T11:03:02.415Z,95937.31
2023-05-02T11:05:53.982Z,95943.50
2023-05-02T11:08:25.291Z,95951.53
2023-05-02T11:10:56.694Z,95945.00
2023-05-02T11:13:46.580Z,95945.88
2023-05-02T11:16:17.980Z,95945.13
2023-05-02T11:18:58.530Z,95949.00
2023-05-02T11:21:31.888Z,95945.63
2023-05-02T11:24:23.402Z,95946.88
2023-05-02T11:27:14.708Z,95944.97
2023-05-02T11:29:52.634Z,95951.91
2023-05-02T11:32:25.600Z,95943.47
2023-05-02T11:34:57.274Z,95943.13
2023-05-02T11:37:28.822Z,95939.31
2023-05-02T11:40:13.472Z,95939.31
2023-05-02T11:42:44.899Z,95930.47
2023-05-02T11:45:16.777Z,95928.63
2023-05-02T11:47:49.073Z,95930.28
2023-05-02T11:50:21.027Z,95919.63
2023-05-02T11:52:52.402Z,95928.06
2023-05-02T11:55:23.960Z,95936.16
2023-05-02T11:57:55.629Z,95936.47
2023-05-02T12:00:28.083Z,95925.06
2023-05-02T12:02:59.549Z,95939.31
2023-05-02T12:05:31.467Z,95927.88
2023-05-02T12:08:03.432Z,95924.81
2023-05-02T12:10:38.329Z,95930.97
2023-05-02T12:13:10.152Z,95936.34
2023-05-02T12:15:43.348Z,95933.28
2023-05-02T12:18:14.932Z,95939.00
2023-05-02T12:20:46.880Z,95938.59
2023-05-02T12:23:22.202Z,95937.06
2023-05-02T12:25:53.603Z,95937.81
2023-05-02T12:28:25.273Z,95941.63
2023-05-02T12:30:56.668Z,95942.38
2023-05-02T12:33:28.002Z,95940.13
2023-05-02T12:36:06.727Z,95947.41
2023-05-02T12:38:38.152Z,95943.97
2023-05-02T12:41:09.553Z,95945.16
2023-05-02T12:43:49.600Z,95945.19
2023-05-02T12:46:21.003Z,95942.19
2023-05-02T12:49:01.434Z,95943.38
2023-05-02T12:51:33.113Z,95943.44
2023-05-02T12:54:04.830Z,95945.00
2023-05-02T12:56:39.582Z,95941.59
2023-05-02T12:59:26.114Z,95943.47
2023-05-02T13:01:57.764Z,95943.25
2023-05-02T13:04:36.395Z,95943.00
2023-05-02T13:07:08.047Z,95940.38
2023-05-02T13:09:39.446Z,95946.16
2023-05-02T13:12:10.936Z,95938.53
2023-05-02T13:14:42.411Z,95946.22
2023-05-02T13:17:14.160Z,95946.97
2023-05-02T13:19:57.729Z,95947.72
2023-05-02T13:22:32.558Z,95947.72
2023-05-02T13:25:07.591Z,95956.16
2023-05-02T13:27:38.977Z,95961.53
2023-05-02T13:30:11.766Z,95958.81
2023-05-02T13:32:43.440Z,95956.88
2023-05-02T13:35:15.802Z,95952.31
2023-05-02T13:37:47.979Z,95946.56
2023-05-02T13:40:19.353Z,95948.09
2023-05-02T13:42:51.348Z,95942.72
2023-05-02T13:45:22.713Z,95954.25
2023-05-02T13:47:54.095Z,95950.41
2023-05-02T13:50:25.520Z,95957.31
2023-05-02T13:52:56.901Z,95960.78
2023-05-02T13:55:28.233Z,95960.78
2023-05-02T13:57:59.697Z,95956.59
2023-05-02T14:00:31.228Z,95956.59
2023-05-02T14:03:02.662Z,95954.69
2023-05-02T14:05:34.214Z,95957.75
2023-05-02T14:08:05.671Z,95960.81
2023-05-02T14:10:37.913Z,95961.63
2023-05-02T14:13:09.558Z,95950.13
2023-05-02T14:15:40.900Z,95952.78
2023-05-02T14:18:12.320Z,95955.47
2023-05-02T14:20:43.924Z,95955.06
2023-05-02T14:23:15.469Z,95954.28
2023-05-02T14:25:46.819Z,95959.19
2023-05-02T14:28:18.486Z,95956.84
2023-05-02T14:30:50.142Z,95963.31
2023-05-02T14:33:21.652Z,95966.00
2023-05-02T14:35:53.002Z,95963.75
2023-05-02T14:38:24.378Z,95955.38
2023-05-02T14:40:55.892Z,95960.84
2023-05-02T14:43:27.492Z,95964.72
2023-05-02T14:45:58.940Z,95966.28
2023-05-02T14:48:30.378Z,95966.25
2023-05-02T14:51:04.857Z,95969.69
2023-05-02T14:53:36.246Z,95973.16
2023-05-02T14:56:12.367Z,95972.72
2023-05-02T14:58:43.845Z,95981.50
2023-05-02T15:01:18.780Z,95983.31
2023-05-02T15:06:30.083Z,95980.28
2023-05-02T15:09:01.770Z,95986.25
2023-05-02T15:11:33.141Z,95986.09
2023-05-02T15:14:04.524Z,95982.09
2023-05-02T15:16:37.364Z,95984.69
2023-05-02T15:19:08.720Z,95983.16
2023-05-02T15:21:40.122Z,95978.09
2023-05-02T15:24:11.445Z,95974.06
2023-05-02T15:26:42.760Z,95971.22
2023-05-02T15:29:14.124Z,95975.63
2023-05-02T15:31:45.691Z,95968.69
2023-05-02T15:34:17.197Z,95969.81
2023-05-02T15:36:48.532Z,95971.47
2023-05-02T15:39:19.845Z,95981.59
2023-05-02T15:41:52.604Z,95974.72
2023-05-02T15:44:25.966Z,95978.56
2023-05-02T15:46:57.322Z,95974.31
2023-05-02T15:49:32.969Z,95982.66
2023-05-02T15:52:04.287Z,95977.59
2023-05-02T15:54:35.629Z,95979.41
2023-05-02T15:57:07.542Z,95973.50
2023-05-02T15:59:39.045Z,95984.03
2023-05-02T16:02:10.409Z,95985.47
2023-05-02T16:04:43.060Z,95988.38
2023-05-02T16:07:14.738Z,95990.56
2023-05-02T16:09:46.322Z,95994.69
2023-05-02T16:12:18.015Z,95995.38
2023-05-02T16:14:49.405Z,96000.56
2023-05-02T16:17:20.971Z,96016.91
2023-05-02T16:19:52.430Z,96016.78
2023-05-02T16:22:24.206Z,96037.31
2023-05-02T16:24:56.206Z,96046.69
2023-05-02T16:27:27.769Z,96063.13
2023-05-02T16:29:59.621Z,96076.09
2023-05-02T16:32:31.290Z,96084.72
2023-05-02T16:35:05.277Z,96087.00
2023-05-02T16:37:36.655Z,96093.72
2023-05-02T16:40:08.915Z,96086.53
2023-05-02T16:42:40.251Z,96098.84
2023-05-02T16:45:11.667Z,96097.63
2023-05-02T16:47:43.138Z,96108.22
2023-05-02T16:50:14.899Z,96105.28
2023-05-02T16:52:46.232Z,96118.31
2023-05-02T16:55:17.783Z,96114.47
2023-05-02T16:57:49.157Z,96125.50
2023-05-02T17:00:20.612Z,96119.41
2023-05-02T17:02:55.069Z,96119.69
2023-05-02T17:05:26.718Z,96123.03
2023-05-02T17:07:58.161Z,96121.25
2023-05-02T17:10:29.597Z,96120.41
2023-05-02T17:13:00.927Z,96128.31
2023-05-02T17:15:38.444Z,96120.69
2023-05-02T17:18:09.899Z,96121.06
2023-05-02T17:20:41.434Z,96113.38
2023-05-02T17:23:12.901Z,96104.94
2023-05-02T17:25:44.439Z,96105.88
2023-05-02T17:28:16.600Z,96102.94
2023-05-02T17:30:48.367Z,96094.56
2023-05-02T17:33:20.576Z,96101.13
2023-05-02T17:35:52.322Z,96093.34
2023-05-02T17:38:23.688Z,96089.63
2023-05-02T17:40:55.034Z,96086.63
2023-05-02T17:43:26.451Z,96085.34
2023-05-02T17:45:57.784Z,96087.31
2023-05-02T17:48:29.188Z,96094.19
2023-05-02T17:51:04.298Z,96089.91
2023-05-02T17:53:36.727Z,96096.78
2023-05-02T17:56:10.492Z,96114.28
2023-05-02T17:58:43.214Z,96109.97
2023-05-02T18:01:14.979Z,96113.25
2023-05-02T18:03:48.050Z,96120.31
2023-05-02T18:06:19.661Z,96132.75
2023-05-02T18:08:51.528Z,96131.53
2023-05-02T18:11:24.227Z,96126.72
2023-05-02T18:13:55.874Z,96129.97
2023-05-02T18:16:34.363Z,96126.72
2023-05-02T18:19:06.043Z,96125.28
2023-05-02T18:21:37.686Z,96127.19
2023-05-02T18:24:09.079Z,96131.16
2023-05-02T18:26:40.581Z,96118.72
2023-05-02T18:29:11.978Z,96128.44
2023-05-02T18:31:43.498Z,96133.16
2023-05-02T18:34:14.841Z,96127.25
2023-05-02T18:36:46.389Z,96125.75
2023-05-02T18:39:18.028Z,96138.06
2023-05-02T18:41:49.495Z,96131.53
2023-05-02T18:44:21.171Z,96131.97
2023-05-02T18:46:52.568Z,96138.84
2023-05-02T18:49:24.504Z,96140.38
2023-05-02T18:51:55.951Z,96150.09
2023-05-02T18:54:28.006Z,96149.34
2023-05-02T18:56:59.326Z,96155.00
2023-05-02T18:59:30.773Z,96150.25
2023-05-02T19:02:02.221Z,96155.25
2023-05-02T19:04:33.585Z,96158.56
2023-05-02T19:07:04.961Z,96163.13
2023-05-02T19:09:36.404Z,96160.81
2023-05-02T19:12:07.802Z,96159.50
2023-05-02T19:14:40.202Z,96173.72
2023-05-02T19:17:13.898Z,96178.00
2023-05-02T19:19:48.002Z,96173.09
2023-05-02T19:22:24.318Z,96173.91
2023-05-02T19:24:55.744Z,96181.09
2023-05-02T19:27:27.368Z,96175.44
2023-05-02T19:29:58.763Z,96180.44
2023-05-02T19:32:30.220Z,96174.75
2023-05-02T19:35:04.511Z,96182.38
2023-05-02T19:37:36.532Z,96181.19
2023-05-02T19:40:08.324Z,96180.78
2023-05-02T19:42:39.739Z,96192.97
2023-05-02T19:45:14.014Z,96183.44
2023-05-02T19:47:45.585Z,96192.09
2023-05-02T19:50:17.067Z,96194.41
2023-05-02T19:52:50.008Z,96195.78
2023-05-02T19:55:21.380Z,96191.47
2023-05-02T19:57:52.804Z,96194.06
2023-05-02T20:00:24.139Z,96193.88
2023-05-02T20:02:56.000Z,96198.22
2023-05-02T20:05:27.500Z,96203.13
2023-05-02T20:07:59.508Z,96200.69
2023-05-02T20:10:31.318Z,96208.25
2023-05-02T20:13:02.834Z,96207.41
2023-05-02T20:15:34.408Z,96208.06
2023-05-02T20:18:05.750Z,96200.66
2023-05-02T20:20:38.022Z,96203.97
2023-05-02T20:23:09.356Z,96201.13
2023-05-02T20:25:42.614Z,96207.13
2023-05-02T20:28:14.448Z,96203.25
2023-05-02T20:30:45.783Z,96207.03
2023-05-02T20:33:18.362Z,96205.81
2023-05-02T20:35:55.792Z,96206.81
2023-05-02T20:38:27.157Z,96205.63
2023-05-02T20:40:58.612Z,96211.38
2023-05-02T20:43:29.914Z,96207.16
2023-05-02T20:46:08.557Z,96205.94
2023-05-02T20:48:43.198Z,96210.94
2023-05-02T20:51:15.194Z,96212.84
2023-05-02T20:53:46.754Z,96208.94
2023-05-02T20:56:18.145Z,96211.50
2023-05-02T20:58:49.645Z,96214.94
2023-05-02T21:01:21.071Z,96215.63
2023-05-02T21:03:52.483Z,96213.28
2023-05-02T21:06:23.974Z,96210.84
2023-05-02T21:08:56.567Z,96212.97
2023-05-02T21:11:28.086Z,96210.84
2023-05-02T21:13:59.396Z,96207.66
2023-05-02T21:16:30.959Z,96209.00
2023-05-02T21:19:02.443Z,96203.25
2023-05-02T21:21:33.791Z,96208.00
2023-05-02T21:24:05.434Z,96201.69
2023-05-02T21:26:36.837Z,96199.69
2023-05-02T21:29:08.262Z,96205.03
2023-05-02T21:31:39.840Z,96209.56
2023-05-02T21:34:11.375Z,96205.34
2023-05-02T21:36:43.253Z,96214.44
2023-05-02T21:39:16.277Z,96209.13
2023-05-02T21:41:47.659Z,96207.56
2023-05-02T21:44:19.362Z,96208.34
2023-05-02T21:46:51.529Z,96210.53
2023-05-02T21:49:22.973Z,96204.34
2023-05-02T21:51:54.331Z,96205.81
2023-05-02T21:54:25.679Z,96204.25
2023-05-02T21:56:57.084Z,96200.94
2023-05-02T21:59:28.507Z,96203.34
2023-05-02T22:01:59.908Z,96207.13
2023-05-02T22:04:31.331Z,96206.00
2023-05-02T22:07:02.660Z,96205.56
2023-05-02T22:09:34.124Z,96207.13
2023-05-02T22:12:05.665Z,96202.31
2023-05-02T22:14:44.547Z,96199.09
2023-05-02T22:17:18.511Z,96207.72
2023-05-02T22:19:50.094Z,96206.50
2023-05-02T22:22:21.534Z,96206.38
2023-05-02T22:24:52.953Z,96209.56
2023-05-02T22:27:24.347Z,96212.22
2023-05-02T22:29:56.335Z,96201.16
2023-05-02T22:32:27.784Z,96204.47
2023-05-02T22:34:59.210Z,96205.94
2023-05-02T22:37:30.695Z,96214.19
2023-05-02T22:40:02.288Z,96209.34
2023-05-02T22:42:33.821Z,96213.56
2023-05-02T22:45:07.499Z,96207.47
2023-05-02T22:47:39.199Z,96209.34
2023-05-02T22:50:11.138Z,96207.81
2023-05-02T22:52:42.986Z,96213.75
2023-05-02T22:55:14.647Z,96210.56
2023-05-02T22:57:45.973Z,96202.78
2023-05-02T23:00:17.570Z,96211.84
2023-05-02T23:02:49.108Z,96214.63
2023-05-02T23:05:20.563Z,96209.75
2023-05-02T23:07:52.031Z,96219.72
2023-05-02T23:10:23.434Z,96212.88
2023-05-02T23:12:54.810Z,96209.09
2023-05-02T23:15:26.231Z,96202.59
2023-05-02T23:17:57.779Z,96211.00
2023-05-02T23:20:29.218Z,96217.53
2023-05-02T23:23:00.690Z,96216.50
2023-05-02T23:25:33.105Z,96217.59
2023-05-02T23:28:04.826Z,96214.06
2023-05-02T23:30:37.884Z,96209.72
2023-05-02T23:33:09.417Z,96205.19
2023-05-02T23:35:40.899Z,96213.16
2023-05-02T23:38:12.626Z,96197.44
2023-05-02T23:40:44.001Z,96201.59
2023-05-02T23:43:15.933Z,96205.50
2023-05-02T23:45:47.391Z,96203.28
2023-05-02T23:48:19.998Z,96207.81
2023-05-02T23:50:51.338Z,96201.09
2023-05-02T23:53:22.781Z,96201.72
2023-05-02T23:55:54.219Z,96199.75
2023-05-02T23:58:25.787Z,96206.16
